createdAt,value
2018-06-19T00:02:12.309Z,81.10
2018-06-19T00:04:41.132Z,81.10
2018-06-19T00:09:38.529Z,80.90
2018-06-19T00:12:07.328Z,80.90
2018-06-19T00:14:36.143Z,80.90
2018-06-19T00:17:05.111Z,80.80
2018-06-19T00:19:35.545Z,80.80
2018-06-19T00:22:04.364Z,80.60
2018-06-19T00:24:33.182Z,80.60
2018-06-19T00:27:01.993Z,80.40
2018-06-19T00:29:30.819Z,80.30
2018-06-19T00:31:59.620Z,80.30
2018-06-19T00:34:28.435Z,80.80
2018-06-19T00:36:57.246Z,80.30
2018-06-19T00:39:26.061Z,80.30
2018-06-19T00:41:54.890Z,80.30
2018-06-19T00:44:23.706Z,80.20
2018-06-19T00:49:22.168Z,80.20
2018-06-19T00:51:50.963Z,80.10
2018-06-19T00:54:19.763Z,80.20
2018-06-19T00:56:52.760Z,80.00
2018-06-19T00:59:21.656Z,80.00
2018-06-19T01:01:50.767Z,80.00
2018-06-19T01:04:19.572Z,79.90
2018-06-19T01:06:48.394Z,79.80
2018-06-19T01:09:17.279Z,79.90
2018-06-19T01:11:46.992Z,80.00
2018-06-19T01:14:15.808Z,79.70
2018-06-19T01:16:44.643Z,79.80
2018-06-19T01:19:13.437Z,79.90
2018-06-19T01:21:42.253Z,80.60
2018-06-19T01:24:11.056Z,80.20
2018-06-19T01:26:39.865Z,80.10
2018-06-19T01:29:09.234Z,80.10
2018-06-19T01:31:38.048Z,80.20
2018-06-19T01:34:06.843Z,80.30
2018-06-19T01:36:35.663Z,80.30
2018-06-19T01:39:08.002Z,80.40
2018-06-19T01:41:36.913Z,80.40
2018-06-19T01:44:05.682Z,80.70
2018-06-19T01:46:34.534Z,81.10
2018-06-19T01:49:03.419Z,81.20
2018-06-19T01:51:32.222Z,82.10
2018-06-19T01:54:01.102Z,81.30
2018-06-19T01:56:30.002Z,81.30
2018-06-19T01:58:58.787Z,81.40
2018-06-19T02:01:27.583Z,81.50
2018-06-19T02:03:56.378Z,81.50
2018-06-19T02:06:25.169Z,81.60
2018-06-19T02:08:53.975Z,81.70
2018-06-19T02:11:22.774Z,82.00
2018-06-19T02:13:51.569Z,82.10
2018-06-19T02:16:20.375Z,82.40
2018-06-19T02:18:49.174Z,82.50
2018-06-19T02:21:18.020Z,82.60
2018-06-19T02:23:46.778Z,82.90
2018-06-19T02:26:15.610Z,83.00
2018-06-19T02:28:44.406Z,83.20
2018-06-19T02:31:13.202Z,83.40
2018-06-19T02:33:42.003Z,83.50
2018-06-19T02:36:10.812Z,83.60
2018-06-19T02:38:39.614Z,83.70
2018-06-19T02:41:08.409Z,83.70
2018-06-19T02:43:37.204Z,83.80
2018-06-19T02:46:06.010Z,84.00
2018-06-19T02:48:34.808Z,84.10
2018-06-19T02:51:04.342Z,84.20
2018-06-19T02:53:33.136Z,84.50
2018-06-19T02:56:02.170Z,84.70
2018-06-19T02:58:31.486Z,85.00
2018-06-19T03:01:00.303Z,85.10
2018-06-19T03:03:29.094Z,85.30
2018-06-19T03:05:57.878Z,85.30
2018-06-19T03:08:26.777Z,85.50
2018-06-19T03:10:55.570Z,85.70
2018-06-19T03:13:24.372Z,86.20
2018-06-19T03:15:53.163Z,86.80
2018-06-19T03:18:21.958Z,87.60
2018-06-19T03:20:50.750Z,87.70
2018-06-19T03:23:19.542Z,87.80
2018-06-19T03:25:48.340Z,87.90
2018-06-19T03:28:17.174Z,88.00
2018-06-19T03:30:45.982Z,88.00
2018-06-19T03:33:14.791Z,88.30
2018-06-19T03:35:43.583Z,88.30
2018-06-19T03:38:12.674Z,88.30
2018-06-19T03:40:41.478Z,88.30
2018-06-19T03:43:10.274Z,88.30
2018-06-19T03:45:39.054Z,88.20
2018-06-19T03:48:07.851Z,87.90
2018-06-19T03:50:36.650Z,87.60
2018-06-19T03:53:05.602Z,87.40
2018-06-19T03:58:31.747Z,87.20
2018-06-19T04:01:00.598Z,86.50
2018-06-19T04:03:29.432Z,86.60
2018-06-19T04:05:58.278Z,85.90
2018-06-19T04:08:27.137Z,84.40
2018-06-19T04:10:55.956Z,83.10
2018-06-19T04:13:24.750Z,82.30
2018-06-19T04:15:53.551Z,81.80
2018-06-19T04:18:22.377Z,80.40
2018-06-19T04:20:51.187Z,79.20
2018-06-19T04:23:20.408Z,78.90
2018-06-19T04:25:49.246Z,78.20
2018-06-19T04:28:18.058Z,77.60
2018-06-19T04:30:46.863Z,76.80
2018-06-19T04:33:15.669Z,76.30
2018-06-19T04:35:44.502Z,75.50
2018-06-19T04:38:13.318Z,74.90
2018-06-19T04:40:42.126Z,74.00
2018-06-19T04:43:10.911Z,73.20
2018-06-19T04:45:39.724Z,71.50
2018-06-19T04:48:08.535Z,69.90
2018-06-19T04:50:37.338Z,66.80
2018-06-19T04:53:06.137Z,64.80
2018-06-19T04:55:34.996Z,62.80
2018-06-19T04:58:03.786Z,61.30
2018-06-19T05:00:32.603Z,59.90
2018-06-19T05:03:01.403Z,58.20
2018-06-19T05:05:30.206Z,56.70
2018-06-19T05:07:59.027Z,55.90
2018-06-19T05:10:27.830Z,55.30
2018-06-19T05:12:56.837Z,53.30
2018-06-19T05:15:25.479Z,53.10
2018-06-19T05:17:54.278Z,51.30
2018-06-19T05:20:23.080Z,49.80
2018-06-19T05:22:51.923Z,47.80
2018-06-19T05:25:20.916Z,45.80
2018-06-19T05:27:49.723Z,43.30
2018-06-19T05:30:18.545Z,42.00
2018-06-19T05:32:47.325Z,40.40
2018-06-19T05:35:16.315Z,39.50
2018-06-19T05:37:45.078Z,37.20
2018-06-19T05:40:14.084Z,36.00
2018-06-19T05:42:42.938Z,35.30
2018-06-19T05:45:11.742Z,35.10
2018-06-19T05:47:40.614Z,34.50
2018-06-19T05:50:09.407Z,33.80
2018-06-19T05:52:38.206Z,32.30
2018-06-19T05:55:06.999Z,30.70
2018-06-19T05:57:35.871Z,29.40
2018-06-19T06:00:05.228Z,28.90
2018-06-19T06:02:34.024Z,29.30
2018-06-19T06:07:31.323Z,27.20
2018-06-19T06:10:00.119Z,27.30
2018-06-19T06:12:29.456Z,27.40
2018-06-19T06:14:58.307Z,28.10
2018-06-19T06:17:27.119Z,28.10
2018-06-19T06:19:55.914Z,27.30
2018-06-19T06:22:24.711Z,27.30
2018-06-19T06:24:53.590Z,26.90
2018-06-19T06:27:22.383Z,26.10
2018-06-19T06:29:51.183Z,26.10
2018-06-19T06:32:20.000Z,25.50
2018-06-19T06:34:48.787Z,25.70
2018-06-19T06:37:17.592Z,25.50
2018-06-19T06:39:46.478Z,25.80
2018-06-19T06:42:15.382Z,25.60
2018-06-19T06:44:44.208Z,26.40
2018-06-19T06:47:12.982Z,27.80
2018-06-19T06:49:42.452Z,30.00
2018-06-19T06:52:11.254Z,32.20
2018-06-19T06:54:40.626Z,33.70
2018-06-19T06:57:09.429Z,36.40
2018-06-19T06:59:38.232Z,37.60
2018-06-19T07:02:07.027Z,39.00
2018-06-19T07:04:36.936Z,41.60
2018-06-19T07:07:05.752Z,42.10
2018-06-19T07:09:34.547Z,40.70
2018-06-19T07:17:00.478Z,37.10
2018-06-19T07:19:29.292Z,38.50
2018-06-19T07:21:58.005Z,39.40
2018-06-19T07:24:26.792Z,41.50
2018-06-19T07:26:55.608Z,42.90
2018-06-19T07:29:24.496Z,44.60
2018-06-19T07:31:53.399Z,45.60
2018-06-19T07:34:22.187Z,46.20
2018-06-19T07:36:51.149Z,46.40
2018-06-19T07:39:19.868Z,47.10
2018-06-19T07:41:48.659Z,47.90
2018-06-19T07:44:17.464Z,48.40
2018-06-19T07:46:46.279Z,49.40
2018-06-19T07:49:15.122Z,49.30
2018-06-19T07:51:43.915Z,49.20
2018-06-19T07:54:12.718Z,49.40
2018-06-19T07:56:41.514Z,49.40
2018-06-19T07:59:10.311Z,50.10
2018-06-19T08:01:39.123Z,49.60
2018-06-19T08:04:08.171Z,48.30
2018-06-19T08:06:36.972Z,48.50
2018-06-19T08:09:07.594Z,48.70
2018-06-19T08:11:36.386Z,49.50
2018-06-19T08:14:05.210Z,47.90
2018-06-19T08:16:34.304Z,48.00
2018-06-19T08:19:03.126Z,46.90
2018-06-19T08:21:31.935Z,47.20
2018-06-19T08:24:00.732Z,47.70
2018-06-19T08:26:29.580Z,48.50
2018-06-19T08:28:58.400Z,48.80
2018-06-19T08:31:27.567Z,48.90
2018-06-19T08:33:56.386Z,49.40
2018-06-19T08:36:25.195Z,49.90
2018-06-19T08:38:54.015Z,49.90
2018-06-19T08:41:22.814Z,49.90
2018-06-19T08:43:51.642Z,50.50
2018-06-19T08:46:20.442Z,51.00
2018-06-19T08:48:49.878Z,51.40
2018-06-19T08:51:18.726Z,51.90
2018-06-19T08:53:47.531Z,52.30
2018-06-19T08:56:16.329Z,51.90
2018-06-19T08:58:45.138Z,52.20
2018-06-19T09:01:14.770Z,51.80
2018-06-19T09:03:43.563Z,52.00
2018-06-19T09:06:12.382Z,51.90
2018-06-19T09:08:41.207Z,51.80
2018-06-19T09:11:10.018Z,51.80
2018-06-19T09:13:38.815Z,51.90
2018-06-19T09:16:07.640Z,52.90
2018-06-19T09:18:36.871Z,54.30
2018-06-19T09:21:06.381Z,55.10
2018-06-19T09:23:35.179Z,56.10
2018-06-19T09:26:04.028Z,56.60
2018-06-19T09:28:32.794Z,57.10
2018-06-19T09:31:01.608Z,57.20
2018-06-19T09:33:30.420Z,57.70
2018-06-19T09:35:59.218Z,58.40
2018-06-19T09:38:28.035Z,57.90
2018-06-19T09:40:56.850Z,57.10
2018-06-19T09:43:25.655Z,56.50
2018-06-19T09:45:54.465Z,55.70
2018-06-19T09:48:23.262Z,54.90
2018-06-19T09:50:52.067Z,54.40
2018-06-19T09:53:20.933Z,53.50
2018-06-19T09:55:49.810Z,53.10
2018-06-19T09:58:19.206Z,52.30
2018-06-19T10:00:47.955Z,51.40
2018-06-19T10:03:16.751Z,51.40
2018-06-19T10:05:45.620Z,50.40
2018-06-19T10:08:14.391Z,50.60
2018-06-19T10:10:43.203Z,50.10
2018-06-19T10:13:12.019Z,49.90
2018-06-19T10:15:40.838Z,50.30
2018-06-19T10:18:09.730Z,51.20
2018-06-19T10:20:38.592Z,51.60
2018-06-19T10:23:07.355Z,52.30
2018-06-19T10:25:36.199Z,53.30
2018-06-19T10:28:05.060Z,54.20
2018-06-19T10:30:33.864Z,53.30
2018-06-19T10:33:02.684Z,52.50
2018-06-19T10:35:31.539Z,52.00
2018-06-19T10:38:00.354Z,52.00
2018-06-19T10:40:29.159Z,51.90
2018-06-19T10:42:57.971Z,51.40
2018-06-19T10:45:26.782Z,51.70
2018-06-19T10:47:55.678Z,50.40
2018-06-19T10:50:24.684Z,50.10
2018-06-19T10:52:53.522Z,50.10
2018-06-19T10:55:22.367Z,49.20
2018-06-19T10:57:51.176Z,48.90
2018-06-19T11:00:20.563Z,49.40
2018-06-19T11:02:49.434Z,50.00
2018-06-19T11:05:18.239Z,50.50
2018-06-19T11:07:47.057Z,50.80
2018-06-19T11:10:16.107Z,50.20
2018-06-19T11:12:44.899Z,49.80
2018-06-19T11:15:13.695Z,50.00
2018-06-19T11:17:42.514Z,49.90
2018-06-19T11:20:11.711Z,49.80
2018-06-19T11:22:40.519Z,50.30
2018-06-19T11:25:09.352Z,51.00
2018-06-19T11:27:38.843Z,52.00
2018-06-19T11:30:07.659Z,53.20
2018-06-19T11:32:36.476Z,52.90
2018-06-19T11:35:05.277Z,52.50
2018-06-19T11:37:34.083Z,52.20
2018-06-19T11:40:02.891Z,51.60
2018-06-19T11:42:31.699Z,51.00
2018-06-19T11:45:00.731Z,50.10
2018-06-19T11:47:29.556Z,50.40
2018-06-19T11:49:58.359Z,50.30
2018-06-19T11:52:27.176Z,50.40
2018-06-19T11:54:55.975Z,50.10
2018-06-19T11:57:24.783Z,50.20
2018-06-19T11:59:53.603Z,50.20
2018-06-19T12:02:22.475Z,50.60
2018-06-19T12:04:51.351Z,50.00
2018-06-19T12:07:20.723Z,49.80
2018-06-19T12:09:49.539Z,49.60
2018-06-19T12:12:18.451Z,49.20
2018-06-19T12:14:47.275Z,49.10
2018-06-19T12:17:16.958Z,48.50
2018-06-19T12:19:45.939Z,48.20
2018-06-19T12:22:14.730Z,48.10
2018-06-19T12:24:43.536Z,47.50
2018-06-19T12:27:12.399Z,47.20
2018-06-19T12:29:41.225Z,47.60
2018-06-19T12:32:10.072Z,48.30
2018-06-19T12:34:39.073Z,48.70
2018-06-19T12:37:07.962Z,49.20
2018-06-19T12:39:36.784Z,50.30
2018-06-19T12:42:05.639Z,50.60
2018-06-19T12:44:34.738Z,51.10
2018-06-19T12:47:03.678Z,51.10
2018-06-19T12:49:44.064Z,51.40
2018-06-19T12:52:24.397Z,51.80
2018-06-19T12:56:08.590Z,52.30
2018-06-19T12:58:37.409Z,52.10
2018-06-19T13:01:06.315Z,51.20
2018-06-19T13:03:46.583Z,51.50
2018-06-19T13:06:29.374Z,52.00
2018-06-19T13:08:58.191Z,52.00
2018-06-19T13:11:27.015Z,52.60
2018-06-19T13:14:07.482Z,52.70
2018-06-19T13:16:47.786Z,53.10
2018-06-19T13:19:28.275Z,52.80
2018-06-19T13:21:57.098Z,53.30
2018-06-19T13:24:25.993Z,53.70
2018-06-19T13:26:54.811Z,53.70
2018-06-19T13:29:37.093Z,53.70
2018-06-19T13:32:05.928Z,54.20
2018-06-19T13:34:36.490Z,55.20
2018-06-19T13:37:05.858Z,55.70
2018-06-19T13:39:35.479Z,56.00
2018-06-19T13:42:17.087Z,55.00
2018-06-19T13:44:53.646Z,56.30
2018-06-19T13:47:24.085Z,56.10
2018-06-19T13:49:52.897Z,56.30
2018-06-19T13:52:21.703Z,56.70
2018-06-19T13:54:50.506Z,57.40
2018-06-19T13:57:46.348Z,57.90
2018-06-19T14:00:17.326Z,58.80
2018-06-19T14:02:46.142Z,58.90
2018-06-19T14:05:16.160Z,59.00
2018-06-19T14:08:05.635Z,58.70
2018-06-19T14:10:45.782Z,58.50
2018-06-19T14:13:14.599Z,59.10
2018-06-19T14:15:45.286Z,59.50
2018-06-19T14:18:15.226Z,59.90
2018-06-19T14:20:44.129Z,60.60
2018-06-19T14:23:13.365Z,61.20
2018-06-19T14:25:42.402Z,60.80
2018-06-19T14:28:11.514Z,60.50
2018-06-19T14:30:40.315Z,60.50
2018-06-19T14:33:09.174Z,59.60
2018-06-19T14:35:37.922Z,59.40
2018-06-19T14:38:06.748Z,59.60
2018-06-19T14:40:35.597Z,60.00
2018-06-19T14:43:04.723Z,60.30
2018-06-19T14:45:33.504Z,60.40
2018-06-19T14:48:02.309Z,60.90
2018-06-19T14:50:31.142Z,61.40
2018-06-19T14:52:59.955Z,61.40
2018-06-19T14:55:29.485Z,61.70
2018-06-19T14:57:58.283Z,61.30
2018-06-19T15:00:27.090Z,61.50
2018-06-19T15:02:55.890Z,61.50
2018-06-19T15:05:24.799Z,62.20
2018-06-19T15:07:54.559Z,62.20
2018-06-19T15:10:23.609Z,62.50
2018-06-19T15:12:52.407Z,63.40
2018-06-19T15:15:21.276Z,64.40
2018-06-19T15:17:50.065Z,63.70
2018-06-19T15:20:18.902Z,63.50
2018-06-19T15:22:47.719Z,63.40
2018-06-19T15:25:16.530Z,63.30
2018-06-19T15:27:45.438Z,61.60
2018-06-19T15:30:14.315Z,61.10
2018-06-19T15:32:43.208Z,60.50
2018-06-19T15:35:12.011Z,60.60
2018-06-19T15:37:40.857Z,61.20
2018-06-19T15:40:09.627Z,61.10
2018-06-19T15:42:38.456Z,61.10
2018-06-19T15:45:07.270Z,62.30
2018-06-19T15:47:36.087Z,63.10
2018-06-19T15:50:05.250Z,62.10
2018-06-19T15:52:34.123Z,63.00
2018-06-19T15:55:02.971Z,62.80
2018-06-19T15:57:31.790Z,62.50
2018-06-19T16:00:00.590Z,62.10
2018-06-19T16:02:29.399Z,62.70
2018-06-19T16:04:58.203Z,62.30
2018-06-19T16:07:27.044Z,62.60
2018-06-19T16:09:55.854Z,62.30
2018-06-19T16:12:24.722Z,62.30
2018-06-19T16:14:53.525Z,62.40
2018-06-19T16:17:22.334Z,62.90
2018-06-19T16:19:51.127Z,63.40
2018-06-19T16:22:19.979Z,62.70
2018-06-19T16:24:48.780Z,63.00
2018-06-19T16:27:17.654Z,62.90
2018-06-19T16:29:46.843Z,63.00
2018-06-19T16:32:15.642Z,63.20
2018-06-19T16:34:44.526Z,63.50
2018-06-19T16:37:13.342Z,63.60
2018-06-19T16:39:42.203Z,63.40
2018-06-19T16:42:11.013Z,63.10
2018-06-19T16:44:39.815Z,63.40
2018-06-19T16:47:08.623Z,63.50
2018-06-19T16:49:38.066Z,63.00
2018-06-19T16:52:07.330Z,62.80
2018-06-19T16:54:36.145Z,63.00
2018-06-19T16:57:05.004Z,63.50
2018-06-19T16:59:34.099Z,63.70
2018-06-19T17:02:03.257Z,64.20
2018-06-19T17:04:32.127Z,64.20
2018-06-19T17:07:01.112Z,64.10
2018-06-19T17:09:30.018Z,64.40
2018-06-19T17:11:58.839Z,64.50
2018-06-19T17:14:27.631Z,64.50
2018-06-19T17:16:56.439Z,64.70
2018-06-19T17:19:25.226Z,64.80
2018-06-19T17:21:54.035Z,65.30
2018-06-19T17:24:22.855Z,65.30
2018-06-19T17:26:51.788Z,65.70
2018-06-19T17:29:20.587Z,65.90
2018-06-19T17:31:49.378Z,66.40
2018-06-19T17:34:18.268Z,66.50
2018-06-19T17:36:47.083Z,66.60
2018-06-19T17:39:15.892Z,66.80
2018-06-19T17:41:44.692Z,66.70
2018-06-19T17:44:14.361Z,66.80
2018-06-19T17:46:43.615Z,66.70
2018-06-19T17:49:12.422Z,66.90
2018-06-19T17:51:41.219Z,67.40
2018-06-19T17:54:10.130Z,67.60
2018-06-19T17:56:38.930Z,67.60
2018-06-19T17:59:07.854Z,67.30
2018-06-19T18:01:36.626Z,67.40
2018-06-19T18:04:05.531Z,67.20
2018-06-19T18:06:34.378Z,67.00
2018-06-19T18:09:03.432Z,67.00
2018-06-19T18:11:32.236Z,66.20
2018-06-19T18:14:01.042Z,65.90
2018-06-19T18:16:29.934Z,66.00
2018-06-19T18:18:58.752Z,66.10
2018-06-19T18:21:27.575Z,67.20
2018-06-19T18:23:56.375Z,67.10
2018-06-19T18:26:25.594Z,67.70
2018-06-19T18:28:54.488Z,69.80
2018-06-19T18:31:23.287Z,70.80
2018-06-19T18:33:52.090Z,71.70
2018-06-19T18:36:20.887Z,72.20
2018-06-19T18:38:49.711Z,73.00
2018-06-19T18:41:18.837Z,73.80
2018-06-19T18:43:47.653Z,74.00
2018-06-19T18:46:16.515Z,74.40
2018-06-19T18:48:45.329Z,74.70
2018-06-19T18:51:14.197Z,75.00
2018-06-19T18:53:43.011Z,75.30
2018-06-19T18:56:11.879Z,75.70
2018-06-19T18:58:40.706Z,76.00
2018-06-19T19:01:09.534Z,76.30
2018-06-19T19:03:38.346Z,76.50
2018-06-19T19:06:07.224Z,76.40
2018-06-19T19:08:36.046Z,76.60
2018-06-19T19:11:04.882Z,76.90
2018-06-19T19:13:33.794Z,77.10
2018-06-19T19:16:08.195Z,77.40
2018-06-19T19:18:42.599Z,77.80
2018-06-19T19:21:11.731Z,78.10
2018-06-19T19:23:40.657Z,78.30
2018-06-19T19:26:09.471Z,78.50
2018-06-19T19:28:44.061Z,78.30
2018-06-19T19:31:12.799Z,78.60
2018-06-19T19:33:41.619Z,78.90
2018-06-19T19:36:14.699Z,79.40
2018-06-19T19:38:48.959Z,79.70
2018-06-19T19:41:17.778Z,80.50
2018-06-19T19:43:46.595Z,81.40
2018-06-19T19:46:20.961Z,82.30
2018-06-19T19:48:55.263Z,83.30
2018-06-19T19:51:24.410Z,83.90
2018-06-19T19:53:53.241Z,84.10
2018-06-19T19:56:27.664Z,84.50
2018-06-19T19:58:56.498Z,84.90
2018-06-19T20:01:25.312Z,85.20
2018-06-19T20:03:54.126Z,85.30
2018-06-19T20:06:22.954Z,85.70
2018-06-19T20:08:51.870Z,86.10
2018-06-19T20:11:20.686Z,86.60
2018-06-19T20:13:49.490Z,87.10
2018-06-19T20:16:18.308Z,87.30
2018-06-19T20:18:47.130Z,87.80
2018-06-19T20:21:15.947Z,87.90
2018-06-19T20:23:45.061Z,88.10
2018-06-19T20:26:13.867Z,88.40
2018-06-19T20:28:42.903Z,89.00
2018-06-19T20:31:11.720Z,89.10
2018-06-19T20:33:40.912Z,89.50
2018-06-19T20:36:10.209Z,89.90
2018-06-19T20:38:38.993Z,90.00
2018-06-19T20:41:08.164Z,90.10
2018-06-19T20:43:36.967Z,90.10
2018-06-19T20:46:05.770Z,90.40
2018-06-19T20:48:35.027Z,90.40
2018-06-19T20:51:03.839Z,90.50
2018-06-19T20:53:32.943Z,90.50
2018-06-19T20:56:01.756Z,90.40
2018-06-19T20:58:30.567Z,90.40
2018-06-19T21:00:59.373Z,90.40
2018-06-19T21:03:28.211Z,90.40
2018-06-19T21:05:57.052Z,90.40
2018-06-19T21:08:31.528Z,90.80
2018-06-19T21:11:00.379Z,90.80
2018-06-19T21:13:29.184Z,90.60
2018-06-19T21:15:58.007Z,90.50
2018-06-19T21:23:24.092Z,90.60
2018-06-19T21:25:52.899Z,90.60
2018-06-19T21:28:21.722Z,91.10
2018-06-19T21:30:50.670Z,90.70
2018-06-19T21:33:19.475Z,90.80
2018-06-19T21:35:48.383Z,90.80
2018-06-19T21:38:17.171Z,90.90
2018-06-19T21:40:46.066Z,90.90
2018-06-19T21:43:14.826Z,91.10
2018-06-19T21:45:43.644Z,91.10
2018-06-19T21:48:12.481Z,91.30
2018-06-19T21:50:41.479Z,91.20
2018-06-19T21:53:10.302Z,91.30
2018-06-19T21:55:39.112Z,91.40
2018-06-19T21:58:07.919Z,91.40
2018-06-19T22:00:36.726Z,91.40
2018-06-19T22:03:05.766Z,91.50
2018-06-19T22:05:34.567Z,91.40
2018-06-19T22:08:03.383Z,91.50
2018-06-19T22:10:32.207Z,91.70
2018-06-19T22:13:01.039Z,91.80
2018-06-19T22:15:30.068Z,91.80
2018-06-19T22:17:58.896Z,91.90
2018-06-19T22:20:27.691Z,92.10
2018-06-19T22:22:56.504Z,92.30
2018-06-19T22:25:25.308Z,92.20
2018-06-19T22:27:54.264Z,92.20
2018-06-19T22:30:23.085Z,92.20
2018-06-19T22:32:51.884Z,92.20
2018-06-19T22:35:20.735Z,92.20
2018-06-19T22:37:49.540Z,92.30
2018-06-19T22:40:18.446Z,92.30
2018-06-19T22:42:47.248Z,92.50
2018-06-19T22:45:16.076Z,92.70
2018-06-19T22:47:44.875Z,92.80
2018-06-19T22:50:13.686Z,92.90
2018-06-19T22:52:42.499Z,92.80
2018-06-19T22:55:11.323Z,92.80
2018-06-19T22:57:40.143Z,92.70
2018-06-19T23:00:08.970Z,92.30
2018-06-19T23:02:37.583Z,92.30
2018-06-19T23:05:06.408Z,92.20
2018-06-19T23:07:35.215Z,92.20
2018-06-19T23:10:04.103Z,92.30
2018-06-19T23:12:32.894Z,92.30
2018-06-19T23:15:01.805Z,92.30
2018-06-19T23:17:30.680Z,92.40
2018-06-19T23:19:59.502Z,92.50
2018-06-19T23:22:28.350Z,92.50
2018-06-19T23:24:57.158Z,92.60
2018-06-19T23:27:25.969Z,92.60
2018-06-19T23:29:54.790Z,92.80
2018-06-19T23:34:53.140Z,92.90
2018-06-19T23:37:22.040Z,92.90
2018-06-19T23:39:50.830Z,92.80
2018-06-19T23:42:19.647Z,92.90
2018-06-19T23:44:48.479Z,92.60
2018-06-19T23:47:17.278Z,92.60
2018-06-19T23:49:46.091Z,92.70
2018-06-19T23:52:14.940Z,92.70
2018-06-19T23:54:43.755Z,93.00
2018-06-19T23:57:12.562Z,93.10
2018-06-19T23:59:41.371Z,93.20
